sensor_id;sensor_type;location;lat;lon;timestamp;pressure;altitude;pressure_sealevel;temperature;humidity
11525;BME280;5819;49.648;8.330;2022-11-20T00:00:52;99995.97;;;2.85;100.00
11525;BME280;5819;49.648;8.330;2022-11-20T00:03:21;99994.28;;;2.82;100.00
11525;BME280;5819;49.648;8.330;2022-11-20T00:05:48;99990.88;;;2.81;100.00
11525;BME280;5819;49.648;8.330;2022-11-20T00:08:16;99987.50;;;2.79;100.00
11525;BME280;5819;49.648;8.330;2022-11-20T00:10:44;99989.19;;;2.80;100.00
11525;BME280;5819;49.648;8.330;2022-11-20T00:13:12;99985.78;;;2.80;100.00
11525;BME280;5819;49.648;8.330;2022-11-20T00:15:39;99988.34;;;2.78;100.00
11525;BME280;5819;49.648;8.330;2022-11-20T00:18:09;99988.16;;;2.89;100.00
11525;BME280;5819;49.648;8.330;2022-11-20T00:20:37;99995.94;;;2.86;100.00
11525;BME280;5819;49.648;8.330;2022-11-20T00:23:05;100002.69;;;2.92;100.00
11525;BME280;5819;49.648;8.330;2022-11-20T00:25:33;100001.84;;;2.91;100.00
11525;BME280;5819;49.648;8.330;2022-11-20T00:28:01;99998.44;;;2.89;100.00
11525;BME280;5819;49.648;8.330;2022-11-20T00:30:29;99994.22;;;2.87;100.00
11525;BME280;5819;49.648;8.330;2022-11-20T00:32:57;99988.63;;;3.12;100.00
11525;BME280;5819;49.648;8.330;2022-11-20T00:35:26;99986.38;;;2.94;100.00
11525;BME280;5819;49.648;8.330;2022-11-20T00:37:54;99991.38;;;3.02;100.00
11525;BME280;5819;49.648;8.330;2022-11-20T00:40:22;99993.22;;;2.95;100.00
11525;BME280;5819;49.648;8.330;2022-11-20T00:42:50;99993.28;;;2.92;100.00
11525;BME280;5819;49.648;8.330;2022-11-20T00:45:17;99993.94;;;3.02;100.00
11525;BME280;5819;49.648;8.330;2022-11-20T00:47:45;99989.78;;;2.96;100.00
11525;BME280;5819;49.648;8.330;2022-11-20T00:50:13;99993.31;;;2.89;100.00
11525;BME280;5819;49.648;8.330;2022-11-20T00:52:42;99992.41;;;2.92;100.00
11525;BME280;5819;49.648;8.330;2022-11-20T00:55:10;99990.84;;;2.85;100.00
11525;BME280;5819;49.648;8.330;2022-11-20T00:57:38;99990.78;;;2.88;100.00
11525;BME280;5819;49.648;8.330;2022-11-20T01:00:06;99989.94;;;2.87;100.00
11525;BME280;5819;49.648;8.330;2022-11-20T01:02:34;100000.19;;;2.89;100.00
11525;BME280;5819;49.648;8.330;2022-11-20T01:05:02;99975.25;;;2.94;100.00
11525;BME280;5819;49.648;8.330;2022-11-20T01:07:30;99974.31;;;2.99;100.00
11525;BME280;5819;49.648;8.330;2022-11-20T01:09:59;99978.50;;;3.03;100.00
11525;BME280;5819;49.648;8.330;2022-11-20T01:12:26;99971.66;;;3.04;100.00
11525;BME280;5819;49.648;8.330;2022-11-20T01:14:54;99971.03;;;2.90;100.00
11525;BME280;5819;49.648;8.330;2022-11-20T01:17:22;99971.16;;;2.82;100.00
11525;BME280;5819;49.648;8.330;2022-11-20T01:19:50;99973.72;;;2.83;100.00
11525;BME280;5819;49.648;8.330;2022-11-20T01:22:18;99978.00;;;2.85;100.00
11525;BME280;5819;49.648;8.330;2022-11-20T01:24:45;99978.00;;;2.83;100.00
11525;BME280;5819;49.648;8.330;2022-11-20T01:27:14;99983.16;;;2.83;100.00
11525;BME280;5819;49.648;8.330;2022-11-20T01:29:42;99965.09;;;2.88;100.00
11525;BME280;5819;49.648;8.330;2022-11-20T01:32:10;99968.47;;;2.90;100.00
11525;BME280;5819;49.648;8.330;2022-11-20T01:34:38;99971.00;;;2.93;100.00
11525;BME280;5819;49.648;8.330;2022-11-20T01:37:05;99969.25;;;2.95;100.00
11525;BME280;5819;49.648;8.330;2022-11-20T01:39:33;99963.41;;;2.85;100.00
11525;BME280;5819;49.648;8.330;2022-11-20T01:42:01;99964.31;;;2.84;100.00
11525;BME280;5819;49.648;8.330;2022-11-20T01:44:53;99966.88;;;2.82;100.00
11525;BME280;5819;49.648;8.330;2022-11-20T01:47:27;99967.75;;;2.83;100.00
11525;BME280;5819;49.648;8.330;2022-11-20T01:49:59;99966.78;;;2.89;100.00
11525;BME280;5819;49.648;8.330;2022-11-20T01:52:32;99965.16;;;2.85;100.00
11525;BME280;5819;49.648;8.330;2022-11-20T01:55:06;99960.91;;;2.82;100.00
11525;BME280;5819;49.648;8.330;2022-11-20T01:57:35;99958.31;;;2.82;100.00
11525;BME280;5819;49.648;8.330;2022-11-20T02:00:06;99954.91;;;2.81;100.00
11525;BME280;5819;49.648;8.330;2022-11-20T02:02:44;99949.03;;;2.76;100.00
11525;BME280;5819;49.648;8.330;2022-11-20T02:05:18;99942.16;;;2.77;100.00
11525;BME280;5819;49.648;8.330;2022-11-20T02:07:48;99938.78;;;2.75;100.00
11525;BME280;5819;49.648;8.330;2022-11-20T02:10:16;99939.56;;;2.78;100.00
11525;BME280;5819;49.648;8.330;2022-11-20T02:12:44;99939.56;;;2.80;100.00
11525;BME280;5819;49.648;8.330;2022-11-20T02:15:32;99936.06;;;2.84;100.00
11525;BME280;5819;49.648;8.330;2022-11-20T02:18:01;99936.16;;;2.78;100.00
11525;BME280;5819;49.648;8.330;2022-11-20T02:20:29;99937.00;;;2.78;100.00
11525;BME280;5819;49.648;8.330;2022-11-20T02:22:59;99937.72;;;2.85;100.00
11525;BME280;5819;49.648;8.330;2022-11-20T02:25:32;99931.78;;;2.85;100.00
11525;BME280;5819;49.648;8.330;2022-11-20T02:28:02;99931.78;;;2.85;100.00
11525;BME280;5819;49.648;8.330;2022-11-20T02:30:31;99920.66;;;2.82;100.00
11525;BME280;5819;49.648;8.330;2022-11-20T02:32:59;99925.84;;;2.79;100.00
11525;BME280;5819;49.648;8.330;2022-11-20T02:35:41;99919.09;;;2.74;100.00
11525;BME280;5819;49.648;8.330;2022-11-20T02:38:09;99914.03;;;2.69;100.00
11525;BME280;5819;49.648;8.330;2022-11-20T02:40:38;99911.47;;;2.71;100.00
11525;BME280;5819;49.648;8.330;2022-11-20T02:43:07;99914.00;;;2.72;100.00
11525;BME280;5819;49.648;8.330;2022-11-20T02:45:36;99904.44;;;2.80;100.00
11525;BME280;5819;49.648;8.330;2022-11-20T02:48:05;99912.09;;;2.83;100.00
11525;BME280;5819;49.648;8.330;2022-11-20T02:50:35;99905.31;;;2.79;100.00
11525;BME280;5819;49.648;8.330;2022-11-20T02:53:03;99901.91;;;2.77;100.00
11525;BME280;5819;49.648;8.330;2022-11-20T02:55:31;99903.63;;;2.78;100.00
11525;BME280;5819;49.648;8.330;2022-11-20T02:58:00;99905.25;;;2.82;100.00
11525;BME280;5819;49.648;8.330;2022-11-20T03:00:29;99909.53;;;2.83;100.00
11525;BME280;5819;49.648;8.330;2022-11-20T03:02:57;99900.06;;;2.86;100.00
11525;BME280;5819;49.648;8.330;2022-11-20T03:05:24;99895.84;;;2.81;100.00
11525;BME280;5819;49.648;8.330;2022-11-20T03:07:52;99887.28;;;2.82;100.00
11525;BME280;5819;49.648;8.330;2022-11-20T03:10:20;99895.84;;;2.81;100.00
11525;BME280;5819;49.648;8.330;2022-11-20T03:12:52;99905.16;;;2.87;100.00
11525;BME280;5819;49.648;8.330;2022-11-20T03:15:21;99899.19;;;2.85;100.00
11525;BME280;5819;49.648;8.330;2022-11-20T03:17:53;99903.41;;;2.89;100.00
11525;BME280;5819;49.648;8.330;2022-11-20T03:20:21;99901.75;;;2.87;100.00
11525;BME280;5819;49.648;8.330;2022-11-20T03:22:49;99892.34;;;2.86;100.00
11525;BME280;5819;49.648;8.330;2022-11-20T03:25:16;99898.38;;;2.85;100.00
11525;BME280;5819;49.648;8.330;2022-11-20T03:27:44;99897.38;;;2.92;100.00
11525;BME280;5819;49.648;8.330;2022-11-20T03:30:13;99893.94;;;2.93;100.00
11525;BME280;5819;49.648;8.330;2022-11-20T03:32:42;99890.53;;;2.91;100.00
11525;BME280;5819;49.648;8.330;2022-11-20T03:35:10;99888.63;;;3.02;100.00
11525;BME280;5819;49.648;8.330;2022-11-20T03:37:38;99895.75;;;2.86;100.00
11525;BME280;5819;49.648;8.330;2022-11-20T03:40:06;99895.81;;;2.85;100.00
11525;BME280;5819;49.648;8.330;2022-11-20T03:42:34;99896.69;;;2.83;100.00
11525;BME280;5819;49.648;8.330;2022-11-20T03:45:15;99896.63;;;2.87;100.00
11525;BME280;5819;49.648;8.330;2022-11-20T03:47:45;99891.41;;;2.91;100.00
11525;BME280;5819;49.648;8.330;2022-11-20T03:50:13;99900.91;;;2.86;100.00
11525;BME280;5819;49.648;8.330;2022-11-20T03:52:41;99898.41;;;2.83;100.00
11525;BME280;5819;49.648;8.330;2022-11-20T03:55:09;99894.91;;;2.86;100.00
11525;BME280;5819;49.648;8.330;2022-11-20T03:57:37;99899.31;;;2.80;100.00
11525;BME280;5819;49.648;8.330;2022-11-20T04:00:06;99896.63;;;2.87;100.00
11525;BME280;5819;49.648;8.330;2022-11-20T04:02:34;99881.34;;;2.79;100.00
11525;BME280;5819;49.648;8.330;2022-11-20T04:05:03;99872.72;;;2.81;100.00
11525;BME280;5819;49.648;8.330;2022-11-20T04:07:33;99865.00;;;2.85;100.00
11525;BME280;5819;49.648;8.330;2022-11-20T04:10:01;99864.75;;;2.97;100.00
11525;BME280;5819;49.648;8.330;2022-11-20T04:12:31;99863.22;;;2.88;100.00
11525;BME280;5819;49.648;8.330;2022-11-20T04:14:59;99863.25;;;2.85;100.00
11525;BME280;5819;49.648;8.330;2022-11-20T04:17:27;99864.94;;;2.88;100.00
11525;BME280;5819;49.648;8.330;2022-11-20T04:19:54;99868.25;;;2.93;100.00
11525;BME280;5819;49.648;8.330;2022-11-20T04:22:23;99869.03;;;2.96;100.00
11525;BME280;5819;49.648;8.330;2022-11-20T04:24:52;99864.88;;;2.91;100.00
11525;BME280;5819;49.648;8.330;2022-11-20T04:27:20;99864.09;;;2.86;100.00
11525;BME280;5819;49.648;8.330;2022-11-20T04:29:48;99861.75;;;2.75;100.00
11525;BME280;5819;49.648;8.330;2022-11-20T04:32:15;99860.78;;;2.80;100.00
11525;BME280;5819;49.648;8.330;2022-11-20T04:34:43;99863.25;;;2.85;100.00
11525;BME280;5819;49.648;8.330;2022-11-20T04:37:11;99852.16;;;2.85;100.00
11525;BME280;5819;49.648;8.330;2022-11-20T04:39:40;99853.81;;;2.86;100.00
11525;BME280;5819;49.648;8.330;2022-11-20T04:42:08;99864.84;;;2.92;100.00
11525;BME280;5819;49.648;8.330;2022-11-20T04:44:54;99863.84;;;2.98;100.00
11525;BME280;5819;49.648;8.330;2022-11-20T04:47:22;99859.75;;;2.89;100.00
11525;BME280;5819;49.648;8.330;2022-11-20T04:49:50;99856.16;;;2.98;100.00
11525;BME280;5819;49.648;8.330;2022-11-20T04:52:17;99843.28;;;2.99;100.00
11525;BME280;5819;49.648;8.330;2022-11-20T04:54:46;99840.78;;;2.96;100.00
11525;BME280;5819;49.648;8.330;2022-11-20T04:57:14;99847.59;;;2.97;100.00
11525;BME280;5819;49.648;8.330;2022-11-20T04:59:42;99851.09;;;2.93;100.00
11525;BME280;5819;49.648;8.330;2022-11-20T05:02:11;99850.28;;;2.93;100.00
11525;BME280;5819;49.648;8.330;2022-11-20T05:04:39;99850.97;;;3.01;100.00
11525;BME280;5819;49.648;8.330;2022-11-20T05:07:06;99839.88;;;2.97;100.00
11525;BME280;5819;49.648;8.330;2022-11-20T05:09:34;99845.25;;;2.87;100.00
11525;BME280;5819;49.648;8.330;2022-11-20T05:12:04;99840.03;;;2.90;100.00
11525;BME280;5819;49.648;8.330;2022-11-20T05:14:32;99834.03;;;2.91;100.00
11525;BME280;5819;49.648;8.330;2022-11-20T05:16:59;99833.16;;;2.92;100.00
11525;BME280;5819;49.648;8.330;2022-11-20T05:19:27;99835.75;;;2.90;100.00
11525;BME280;5819;49.648;8.330;2022-11-20T05:21:55;99843.41;;;2.93;100.00
11525;BME280;5819;49.648;8.330;2022-11-20T05:24:22;99845.88;;;2.98;100.00
11525;BME280;5819;49.648;8.330;2022-11-20T05:26:50;99833.97;;;2.95;100.00
11525;BME280;5819;49.648;8.330;2022-11-20T05:29:19;99837.31;;;2.97;100.00
11525;BME280;5819;49.648;8.330;2022-11-20T05:31:47;99827.09;;;2.96;100.00
11525;BME280;5819;49.648;8.330;2022-11-20T05:34:15;99833.03;;;2.98;100.00
11525;BME280;5819;49.648;8.330;2022-11-20T05:36:43;99833.94;;;2.97;100.00
11525;BME280;5819;49.648;8.330;2022-11-20T05:39:10;99838.25;;;2.93;100.00
11525;BME280;5819;49.648;8.330;2022-11-20T05:41:38;99834.03;;;2.91;100.00
11525;BME280;5819;49.648;8.330;2022-11-20T05:44:06;99823.78;;;2.91;100.00
11525;BME280;5819;49.648;8.330;2022-11-20T05:46:35;99810.06;;;2.92;100.00
11525;BME280;5819;49.648;8.330;2022-11-20T05:49:03;99821.19;;;2.92;100.00
11525;BME280;5819;49.648;8.330;2022-11-20T05:51:30;99829.66;;;2.96;100.00
11525;BME280;5819;49.648;8.330;2022-11-20T05:53:58;99835.59;;;2.99;100.00
11525;BME280;5819;49.648;8.330;2022-11-20T05:56:25;99833.78;;;3.03;100.00
11525;BME280;5819;49.648;8.330;2022-11-20T05:58:53;99824.38;;;3.02;100.00
11525;BME280;5819;49.648;8.330;2022-11-20T06:01:23;99824.34;;;3.05;100.00
11525;BME280;5819;49.648;8.330;2022-11-20T06:03:53;99823.59;;;3.00;100.00
11525;BME280;5819;49.648;8.330;2022-11-20T06:06:20;99813.31;;;3.00;100.00
11525;BME280;5819;49.648;8.330;2022-11-20T06:08:48;99817.69;;;2.95;100.00
11525;BME280;5819;49.648;8.330;2022-11-20T06:11:17;99821.03;;;3.00;100.00
11525;BME280;5819;49.648;8.330;2022-11-20T06:13:45;99821.03;;;2.98;100.00
11525;BME280;5819;49.648;8.330;2022-11-20T06:16:15;99827.00;;;3.00;100.00
11525;BME280;5819;49.648;8.330;2022-11-20T06:18:43;99827.03;;;2.99;100.00
11525;BME280;5819;49.648;8.330;2022-11-20T06:21:14;99831.22;;;3.03;100.00
11525;BME280;5819;49.648;8.330;2022-11-20T06:23:42;99817.59;;;2.99;100.00
11525;BME280;5819;49.648;8.330;2022-11-20T06:26:13;99820.84;;;3.09;100.00
11525;BME280;5819;49.648;8.330;2022-11-20T06:28:41;99823.41;;;3.09;100.00
11525;BME280;5819;49.648;8.330;2022-11-20T06:31:11;99820.97;;;3.01;100.00
11525;BME280;5819;49.648;8.330;2022-11-20T06:33:40;99818.38;;;3.04;100.00
11525;BME280;5819;49.648;8.330;2022-11-20T06:36:09;99819.31;;;2.99;100.00
11525;BME280;5819;49.648;8.330;2022-11-20T06:38:39;99821.81;;;3.02;100.00
11525;BME280;5819;49.648;8.330;2022-11-20T06:41:11;99819.31;;;3.00;100.00
11525;BME280;5819;49.648;8.330;2022-11-20T06:43:39;99816.00;;;2.94;100.00
11525;BME280;5819;49.648;8.330;2022-11-20T06:46:09;99811.59;;;3.00;100.00
11525;BME280;5819;49.648;8.330;2022-11-20T06:48:37;99821.97;;;2.96;100.00
11525;BME280;5819;49.648;8.330;2022-11-20T06:51:06;99815.06;;;2.98;100.00
11525;BME280;5819;49.648;8.330;2022-11-20T06:53:34;99810.75;;;3.00;100.00
11525;BME280;5819;49.648;8.330;2022-11-20T06:56:04;99810.66;;;3.04;100.00
11525;BME280;5819;49.648;8.330;2022-11-20T06:58:33;99817.38;;;3.10;100.00
11525;BME280;5819;49.648;8.330;2022-11-20T07:01:03;99819.06;;;3.11;100.00
11525;BME280;5819;49.648;8.330;2022-11-20T07:03:31;99815.84;;;3.01;100.00
11525;BME280;5819;49.648;8.330;2022-11-20T07:05:59;99826.19;;;2.98;100.00
11525;BME280;5819;49.648;8.330;2022-11-20T07:08:28;99823.34;;;3.10;100.00
11525;BME280;5819;49.648;8.330;2022-11-20T07:10:59;99833.63;;;3.10;100.00
11525;BME280;5819;49.648;8.330;2022-11-20T07:13:28;99830.19;;;3.13;100.00
11525;BME280;5819;49.648;8.330;2022-11-20T07:15:59;99835.25;;;3.16;100.00
11525;BME280;5819;49.648;8.330;2022-11-20T07:18:27;99836.94;;;3.17;100.00
11525;BME280;5819;49.648;8.330;2022-11-20T07:20:55;99836.13;;;3.15;100.00
11525;BME280;5819;49.648;8.330;2022-11-20T07:23:23;99837.75;;;3.19;100.00
11525;BME280;5819;49.648;8.330;2022-11-20T07:25:51;99840.41;;;3.14;100.00
11525;BME280;5819;49.648;8.330;2022-11-20T07:28:18;99836.13;;;3.15;100.00
11525;BME280;5819;49.648;8.330;2022-11-20T07:30:50;99842.88;;;3.19;100.00
11525;BME280;5819;49.648;8.330;2022-11-20T07:33:18;99848.78;;;3.24;100.00
11525;BME280;5819;49.648;8.330;2022-11-20T07:35:46;99848.72;;;3.25;100.00
11525;BME280;5819;49.648;8.330;2022-11-20T07:38:14;99847.94;;;3.23;100.00
11525;BME280;5819;49.648;8.330;2022-11-20T07:40:42;99850.41;;;3.28;100.00
11525;BME280;5819;49.648;8.330;2022-11-20T07:43:10;99853.72;;;3.33;100.00
11525;BME280;5819;49.648;8.330;2022-11-20T07:45:37;99854.44;;;3.40;100.00
11525;BME280;5819;49.648;8.330;2022-11-20T07:48:06;99855.47;;;3.31;100.00
11525;BME280;5819;49.648;8.330;2022-11-20T07:50:34;99854.53;;;3.35;100.00
11525;BME280;5819;49.648;8.330;2022-11-20T07:53:03;99859.66;;;3.37;100.00
11525;BME280;5819;49.648;8.330;2022-11-20T07:55:31;99864.81;;;3.35;100.00
11525;BME280;5819;49.648;8.330;2022-11-20T07:57:59;99876.72;;;3.39;100.00
11525;BME280;5819;49.648;8.330;2022-11-20T08:00:27;99871.69;;;3.33;100.00
11525;BME280;5819;49.648;8.330;2022-11-20T08:02:55;99875.25;;;3.27;100.00
11525;BME280;5819;49.648;8.330;2022-11-20T08:05:24;99872.59;;;3.32;100.00
11525;BME280;5819;49.648;8.330;2022-11-20T08:07:52;99878.72;;;3.25;100.00
11525;BME280;5819;49.648;8.330;2022-11-20T08:10:20;99878.53;;;3.34;100.00
11525;BME280;5819;49.648;8.330;2022-11-20T08:12:48;99875.84;;;3.40;100.00
11525;BME280;5819;49.648;8.330;2022-11-20T08:15:35;99873.31;;;3.39;100.00
11525;BME280;5819;49.648;8.330;2022-11-20T08:18:04;99872.47;;;3.38;100.00
11525;BME280;5819;49.648;8.330;2022-11-20T08:20:54;99880.66;;;3.55;100.00
11525;BME280;5819;49.648;8.330;2022-11-20T08:23:22;99885.13;;;3.47;100.00
11525;BME280;5819;49.648;8.330;2022-11-20T08:25:50;99877.38;;;3.49;100.00
11525;BME280;5819;49.648;8.330;2022-11-20T08:28:18;99892.06;;;3.44;100.00
11525;BME280;5819;49.648;8.330;2022-11-20T08:30:48;99884.28;;;3.45;100.00
11525;BME280;5819;49.648;8.330;2022-11-20T08:33:16;99884.34;;;3.44;100.00
11525;BME280;5819;49.648;8.330;2022-11-20T08:35:45;99885.81;;;3.54;100.00
11525;BME280;5819;49.648;8.330;2022-11-20T08:38:14;99884.75;;;3.64;100.00
11525;BME280;5819;49.648;8.330;2022-11-20T08:40:42;99902.00;;;3.60;100.00
11525;BME280;5819;49.648;8.330;2022-11-20T08:43:30;99905.53;;;3.53;100.00
11525;BME280;5819;49.648;8.330;2022-11-20T08:45:58;99907.44;;;3.45;100.00
11525;BME280;5819;49.648;8.330;2022-11-20T08:48:25;99899.78;;;3.44;100.00
11525;BME280;5819;49.648;8.330;2022-11-20T08:50:57;99906.41;;;3.54;100.00
11525;BME280;5819;49.648;8.330;2022-11-20T08:53:28;99910.50;;;3.62;100.00
11525;BME280;5819;49.648;8.330;2022-11-20T08:55:56;99911.34;;;3.64;100.00
11525;BME280;5819;49.648;8.330;2022-11-20T08:58:24;99920.78;;;3.62;100.00
11525;BME280;5819;49.648;8.330;2022-11-20T09:00:53;99917.28;;;3.66;100.00
11525;BME280;5819;49.648;8.330;2022-11-20T09:03:21;99913.22;;;3.56;100.00
11525;BME280;5819;49.648;8.330;2022-11-20T09:05:58;99914.16;;;3.52;100.00
11525;BME280;5819;49.648;8.330;2022-11-20T09:08:28;99919.34;;;3.49;100.00
11525;BME280;5819;49.648;8.330;2022-11-20T09:10:57;99913.31;;;3.52;100.00
11525;BME280;5819;49.648;8.330;2022-11-20T09:13:26;99914.84;;;3.60;100.00
11525;BME280;5819;49.648;8.330;2022-11-20T09:15:55;99915.63;;;3.64;100.00
11525;BME280;5819;49.648;8.330;2022-11-20T09:18:24;99911.53;;;3.55;100.00
11525;BME280;5819;49.648;8.330;2022-11-20T09:20:56;99912.28;;;3.60;100.00
11525;BME280;5819;49.648;8.330;2022-11-20T09:23:24;99917.19;;;3.69;100.00
11525;BME280;5819;49.648;8.330;2022-11-20T09:25:53;99915.72;;;3.59;100.00
11525;BME280;5819;49.648;8.330;2022-11-20T09:28:25;99913.91;;;3.64;100.00
11525;BME280;5819;49.648;8.330;2022-11-20T09:30:53;99916.38;;;3.69;100.00
11525;BME280;5819;49.648;8.330;2022-11-20T09:33:21;99916.31;;;3.70;100.00
11525;BME280;5819;49.648;8.330;2022-11-20T09:35:49;99922.22;;;3.75;100.00
11525;BME280;5819;49.648;8.330;2022-11-20T09:38:17;99929.94;;;3.75;100.00
11525;BME280;5819;49.648;8.330;2022-11-20T09:40:50;99933.31;;;3.77;100.00
11525;BME280;5819;49.648;8.330;2022-11-20T09:43:31;99934.22;;;3.76;100.00
11525;BME280;5819;49.648;8.330;2022-11-20T09:46:14;99931.50;;;3.83;100.00
11525;BME280;5819;49.648;8.330;2022-11-20T09:49:05;99923.66;;;3.89;100.00
11525;BME280;5819;49.648;8.330;2022-11-20T09:51:41;99925.28;;;3.93;100.00
11525;BME280;5819;49.648;8.330;2022-11-20T09:54:16;99915.00;;;3.91;100.00
11525;BME280;5819;49.648;8.330;2022-11-20T09:56:47;99919.63;;;3.77;100.00
11525;BME280;5819;49.648;8.330;2022-11-20T09:59:35;99910.75;;;3.90;100.00
11525;BME280;5819;49.648;8.330;2022-11-20T10:02:14;99914.84;;;3.97;100.00
11525;BME280;5819;49.648;8.330;2022-11-20T10:04:47;99916.66;;;3.94;100.00
11525;BME280;5819;49.648;8.330;2022-11-20T10:07:21;99918.19;;;4.02;100.00
11525;BME280;5819;49.648;8.330;2022-11-20T10:09:59;99920.16;;;3.91;100.00
11525;BME280;5819;49.648;8.330;2022-11-20T10:12:34;99911.41;;;3.98;100.00
11525;BME280;5819;49.648;8.330;2022-11-20T10:15:27;99913.47;;;3.84;100.00
11525;BME280;5819;49.648;8.330;2022-11-20T10:18:07;99911.94;;;3.75;100.00
11525;BME280;5819;49.648;8.330;2022-11-20T10:20:44;99911.69;;;3.86;100.00
11525;BME280;5819;49.648;8.330;2022-11-20T10:23:31;99898.72;;;3.92;100.00
11525;BME280;5819;49.648;8.330;2022-11-20T10:26:16;99889.75;;;4.08;100.00
11525;BME280;5819;49.648;8.330;2022-11-20T10:28:53;99894.72;;;4.16;100.00
11525;BME280;5819;49.648;8.330;2022-11-20T10:31:36;99904.81;;;4.23;100.00
11525;BME280;5819;49.648;8.330;2022-11-20T10:34:07;99900.44;;;4.27;100.00
11525;BME280;5819;49.648;8.330;2022-11-20T10:36:48;99902.03;;;4.33;100.00
11525;BME280;5819;49.648;8.330;2022-11-20T10:39:22;99889.84;;;4.39;100.00
11525;BME280;5819;49.648;8.330;2022-11-20T10:41:53;99887.19;;;4.42;100.00
11525;BME280;5819;49.648;8.330;2022-11-20T10:44:22;99891.19;;;4.54;100.00
11525;BME280;5819;49.648;8.330;2022-11-20T10:47:13;99884.19;;;4.59;100.00
11525;BME280;5819;49.648;8.330;2022-11-20T10:49:43;99895.22;;;4.64;100.00
11525;BME280;5819;49.648;8.330;2022-11-20T10:52:18;99889.25;;;4.62;100.00
11525;BME280;5819;49.648;8.330;2022-11-20T10:54:56;99887.72;;;4.55;100.00
11525;BME280;5819;49.648;8.330;2022-11-20T10:57:46;99887.41;;;4.67;100.00
11525;BME280;5819;49.648;8.330;2022-11-20T11:00:19;99894.94;;;4.75;100.00
11525;BME280;5819;49.648;8.330;2022-11-20T11:02:49;99894.84;;;4.78;100.00
11525;BME280;5819;49.648;8.330;2022-11-20T11:05:25;99899.03;;;4.82;100.00
11525;BME280;5819;49.648;8.330;2022-11-20T11:07:58;99894.75;;;4.82;100.00
11525;BME280;5819;49.648;8.330;2022-11-20T11:10:32;99899.88;;;4.82;100.00
11525;BME280;5819;49.648;8.330;2022-11-20T11:13:03;99891.25;;;4.85;100.00
11525;BME280;5819;49.648;8.330;2022-11-20T11:15:38;99883.25;;;4.94;100.00
11525;BME280;5819;49.648;8.330;2022-11-20T11:18:10;99875.28;;;5.03;100.00
11525;BME280;5819;49.648;8.330;2022-11-20T11:20:38;99873.22;;;5.15;100.00
11525;BME280;5819;49.648;8.330;2022-11-20T11:23:26;99872.34;;;5.16;100.00
11525;BME280;5819;49.648;8.330;2022-11-20T11:25:57;99868.72;;;5.22;100.00
11525;BME280;5819;49.648;8.330;2022-11-20T11:28:27;99865.41;;;5.48;100.00
11525;BME280;5819;49.648;8.330;2022-11-20T11:30:55;99865.19;;;5.54;100.00
11525;BME280;5819;49.648;8.330;2022-11-20T11:33:26;99866.03;;;5.54;100.00
11525;BME280;5819;49.648;8.330;2022-11-20T11:35:56;99868.63;;;5.54;100.00
11525;BME280;5819;49.648;8.330;2022-11-20T11:38:30;99869.38;;;5.58;100.00
11525;BME280;5819;49.648;8.330;2022-11-20T11:40:58;99859.47;;;5.74;100.00
11525;BME280;5819;49.648;8.330;2022-11-20T11:43:28;99856.38;;;5.90;100.00
11525;BME280;5819;49.648;8.330;2022-11-20T11:46:30;99860.84;;;5.84;100.00
11525;BME280;5819;49.648;8.330;2022-11-20T11:49:08;99858.38;;;5.81;100.00
11525;BME280;5819;49.648;8.330;2022-11-20T11:51:47;99862.09;;;5.72;100.00
11525;BME280;5819;49.648;8.330;2022-11-20T11:54:24;99865.31;;;5.79;100.00
11525;BME280;5819;49.648;8.330;2022-11-20T11:56:53;99856.78;;;5.77;100.00
11525;BME280;5819;49.648;8.330;2022-11-20T11:59:25;99854.22;;;5.77;100.00
11525;BME280;5819;49.648;8.330;2022-11-20T12:01:58;99843.06;;;5.75;100.00
11525;BME280;5819;49.648;8.330;2022-11-20T12:04:40;99851.00;;;5.69;100.00
11525;BME280;5819;49.648;8.330;2022-11-20T12:07:13;99845.75;;;5.72;100.00
11525;BME280;5819;49.648;8.330;2022-11-20T12:10:04;99847.69;;;5.65;100.00
11525;BME280;5819;49.648;8.330;2022-11-20T12:12:37;99845.03;;;5.66;100.00
11525;BME280;5819;49.648;8.330;2022-11-20T12:15:11;99842.53;;;5.65;100.00
11525;BME280;5819;49.648;8.330;2022-11-20T12:17:39;99834.66;;;5.70;100.00
11525;BME280;5819;49.648;8.330;2022-11-20T12:20:13;99828.41;;;5.77;100.00
11525;BME280;5819;49.648;8.330;2022-11-20T12:22:49;99820.31;;;5.89;100.00
11525;BME280;5819;49.648;8.330;2022-11-20T12:25:23;99821.09;;;5.91;100.00
11525;BME280;5819;49.648;8.330;2022-11-20T12:30:51;99813.91;;;6.00;100.00
11525;BME280;5819;49.648;8.330;2022-11-20T12:36:19;99804.22;;;6.07;100.00
11525;BME280;5819;49.648;8.330;2022-11-20T12:39:00;99801.63;;;6.07;100.00
11525;BME280;5819;49.648;8.330;2022-11-20T12:41:43;99799.03;;;6.07;100.00
11525;BME280;5819;49.648;8.330;2022-11-20T12:44:57;99798.91;;;6.11;100.00
11525;BME280;5819;49.648;8.330;2022-11-20T12:47:49;99804.06;;;6.11;100.00
11525;BME280;5819;49.648;8.330;2022-11-20T12:50:30;99809.03;;;6.18;100.00
11525;BME280;5819;49.648;8.330;2022-11-20T12:53:30;99804.69;;;6.18;100.00
11525;BME280;5819;49.648;8.330;2022-11-20T12:56:09;99804.66;;;6.20;100.00
11525;BME280;5819;49.648;8.330;2022-11-20T12:58:48;99803.66;;;6.24;100.00
11525;BME280;5819;49.648;8.330;2022-11-20T13:01:24;99790.59;;;6.28;100.00
11525;BME280;5819;49.648;8.330;2022-11-20T13:04:39;99793.13;;;6.30;100.00
11525;BME280;5819;49.648;8.330;2022-11-20T13:07:15;99788.63;;;6.35;100.00
11525;BME280;5819;49.648;8.330;2022-11-20T13:09:48;99779.03;;;6.38;100.00
11525;BME280;5819;49.648;8.330;2022-11-20T13:12:22;99771.97;;;6.43;100.00
11525;BME280;5819;49.648;8.330;2022-11-20T13:14:55;99766.31;;;6.34;100.00
11525;BME280;5819;49.648;8.330;2022-11-20T13:17:31;99765.50;;;6.32;100.00
11525;BME280;5819;49.648;8.330;2022-11-20T13:20:05;99763.66;;;6.35;100.00
11525;BME280;5819;49.648;8.330;2022-11-20T13:22:43;99749.47;;;6.47;100.00
11525;BME280;5819;49.648;8.330;2022-11-20T13:25:23;99756.94;;;6.54;100.00
11525;BME280;5819;49.648;8.330;2022-11-20T13:27:52;99743.69;;;6.64;100.00
11525;BME280;5819;49.648;8.330;2022-11-20T13:30:22;99746.22;;;6.65;100.00
11525;BME280;5819;49.648;8.330;2022-11-20T13:32:52;99745.31;;;6.66;100.00
11525;BME280;5819;49.648;8.330;2022-11-20T13:35:26;99745.81;;;6.76;100.00
11525;BME280;5819;49.648;8.330;2022-11-20T13:38:06;99739.47;;;6.84;100.00